createdAt,value
2019-03-13T00:00:08.243Z,54.69
2019-03-13T00:01:08.221Z,55.30
2019-03-13T00:02:08.216Z,57.45
2019-03-13T00:03:08.203Z,57.66
2019-03-13T00:04:08.193Z,59.30
2019-03-13T00:05:08.192Z,59.73
2019-03-13T00:06:08.168Z,61.16
2019-03-13T00:07:08.158Z,61.06
2019-03-13T00:08:08.147Z,61.09
2019-03-13T00:09:08.136Z,60.58
2019-03-13T00:10:08.138Z,60.37
2019-03-13T00:11:08.128Z,60.88
2019-03-13T00:12:08.125Z,60.50
2019-03-13T00:13:08.095Z,59.38
2019-03-13T00:14:08.085Z,59.58
2019-03-13T00:15:08.083Z,59.81
2019-03-13T00:16:08.063Z,60.63
2019-03-13T00:17:08.056Z,60.35
2019-03-13T00:18:08.044Z,61.61
2019-03-13T00:19:08.037Z,61.61
2019-03-13T00:20:08.031Z,62.12
2019-03-13T00:21:08.012Z,62.54
2019-03-13T00:22:08.014Z,62.87
2019-03-13T00:23:07.989Z,63.18
2019-03-13T00:24:07.983Z,63.49
2019-03-13T00:25:07.988Z,63.79
2019-03-13T00:26:07.973Z,63.62
2019-03-13T00:27:07.947Z,64.00
2019-03-13T00:28:07.939Z,64.13
2019-03-13T00:29:07.929Z,64.75
2019-03-13T00:30:07.927Z,64.64
2019-03-13T00:31:07.910Z,63.93
2019-03-13T00:32:07.902Z,64.03
2019-03-13T00:33:07.885Z,63.31
2019-03-13T00:34:07.875Z,63.34
2019-03-13T00:35:07.875Z,62.62
2019-03-13T00:36:07.853Z,62.93
2019-03-13T00:37:07.855Z,62.73
2019-03-13T00:38:07.830Z,61.90
2019-03-13T00:39:07.824Z,61.60
2019-03-13T00:40:07.823Z,60.77
2019-03-13T00:41:07.812Z,61.11
2019-03-13T00:42:07.788Z,61.62
2019-03-13T00:43:07.776Z,61.11
2019-03-13T00:44:07.768Z,61.42
2019-03-13T00:45:07.776Z,61.62
2019-03-13T00:46:07.760Z,61.55
2019-03-13T00:47:07.750Z,61.65
2019-03-13T00:48:07.739Z,61.96
2019-03-13T00:49:07.803Z,62.40
2019-03-13T00:50:07.709Z,62.40
2019-03-13T00:51:07.697Z,62.19
2019-03-13T00:52:07.684Z,62.60
2019-03-13T00:53:07.673Z,62.81
2019-03-13T00:54:07.660Z,63.43
2019-03-13T00:55:07.651Z,63.43
2019-03-13T00:56:07.643Z,63.43
2019-03-13T00:57:07.632Z,63.12
2019-03-13T00:58:07.627Z,62.71
2019-03-13T00:59:07.609Z,62.92
2019-03-13T01:00:07.595Z,63.22
2019-03-13T01:01:07.597Z,63.35
2019-03-13T01:02:07.574Z,63.35
2019-03-13T01:03:07.569Z,63.46
2019-03-13T01:04:07.558Z,63.67
2019-03-13T01:05:07.544Z,63.74
2019-03-13T01:06:07.543Z,63.76
2019-03-13T01:07:07.524Z,63.97
2019-03-13T01:08:07.513Z,63.67
2019-03-13T01:09:07.499Z,63.76
2019-03-13T01:10:07.490Z,64.07
2019-03-13T01:11:07.492Z,64.18
2019-03-13T01:12:07.488Z,64.18
2019-03-13T01:13:07.458Z,64.18
2019-03-13T01:14:07.446Z,63.67
2019-03-13T01:15:07.439Z,64.28
2019-03-13T01:16:07.450Z,63.69
2019-03-13T01:17:07.412Z,63.49
2019-03-13T01:18:07.402Z,63.07
2019-03-13T01:19:07.398Z,63.39
2019-03-13T01:20:07.380Z,63.69
2019-03-13T01:21:07.392Z,63.28
2019-03-13T01:22:07.365Z,63.28
2019-03-13T01:23:07.349Z,63.42
2019-03-13T01:24:07.339Z,63.52
2019-03-13T01:25:07.328Z,63.93
2019-03-13T01:26:07.334Z,64.03
2019-03-13T01:27:07.306Z,63.52
2019-03-13T01:28:07.298Z,63.82
2019-03-13T01:29:07.286Z,63.72
2019-03-13T01:30:07.394Z,63.62
2019-03-13T01:31:07.332Z,64.14
2019-03-13T01:32:07.252Z,63.93
2019-03-13T01:33:07.243Z,63.72
2019-03-13T01:34:07.231Z,64.14
2019-03-13T01:35:07.221Z,63.93
2019-03-13T01:36:07.210Z,64.24
2019-03-13T01:37:07.205Z,63.93
2019-03-13T01:38:07.194Z,64.37
2019-03-13T01:39:07.182Z,63.82
2019-03-13T01:40:07.168Z,64.17
2019-03-13T01:41:07.158Z,64.27
2019-03-13T01:42:07.149Z,64.14
2019-03-13T01:43:07.135Z,64.17
2019-03-13T01:44:07.130Z,62.93
2019-03-13T01:45:07.116Z,63.34
2019-03-13T01:46:07.103Z,63.13
2019-03-13T01:47:07.098Z,63.03
2019-03-13T01:48:07.083Z,63.45
2019-03-13T01:49:07.075Z,63.54
2019-03-13T01:50:07.063Z,63.03
2019-03-13T01:51:07.055Z,62.62
2019-03-13T01:52:07.044Z,62.72
2019-03-13T01:53:07.028Z,63.13
2019-03-13T01:54:07.018Z,62.82
2019-03-13T01:55:07.010Z,63.13
2019-03-13T01:56:06.996Z,62.75
2019-03-13T01:57:06.992Z,63.24
2019-03-13T01:58:06.977Z,62.72
2019-03-13T01:59:06.976Z,62.41
2019-03-13T02:00:06.964Z,62.34
2019-03-13T02:01:06.944Z,61.82
2019-03-13T02:02:06.936Z,61.72
2019-03-13T02:03:06.926Z,61.61
2019-03-13T02:04:06.914Z,62.13
2019-03-13T02:05:06.900Z,62.24
2019-03-13T02:06:06.893Z,61.72
2019-03-13T02:07:06.897Z,62.03
2019-03-13T02:08:06.870Z,62.13
2019-03-13T02:09:06.859Z,61.72
2019-03-13T02:10:06.850Z,61.72
2019-03-13T02:11:06.840Z,61.54
2019-03-13T02:12:06.839Z,61.72
2019-03-13T02:13:06.818Z,61.82
2019-03-13T02:14:06.806Z,61.93
2019-03-13T02:15:06.801Z,61.82
2019-03-13T02:16:06.793Z,62.03
2019-03-13T02:17:06.789Z,62.24
2019-03-13T02:18:06.766Z,62.03
2019-03-13T02:19:06.759Z,62.24
2019-03-13T02:20:06.745Z,62.26
2019-03-13T02:21:06.736Z,62.47
2019-03-13T02:22:06.746Z,62.68
2019-03-13T02:23:06.714Z,62.78
2019-03-13T02:24:06.711Z,62.47
2019-03-13T02:25:06.695Z,62.47
2019-03-13T02:26:06.684Z,62.57
2019-03-13T02:27:06.685Z,62.68
2019-03-13T02:28:06.662Z,62.40
2019-03-13T02:29:06.653Z,62.92
2019-03-13T02:30:06.642Z,62.71
2019-03-13T02:31:06.639Z,63.01
2019-03-13T02:32:06.793Z,63.12
2019-03-13T02:33:06.610Z,62.81
2019-03-13T02:34:06.621Z,63.53
2019-03-13T02:35:06.599Z,63.12
2019-03-13T02:36:06.583Z,63.22
2019-03-13T02:37:06.582Z,63.32
2019-03-13T02:38:06.563Z,62.81
2019-03-13T02:39:06.549Z,62.60
2019-03-13T02:40:06.540Z,62.71
2019-03-13T02:41:06.535Z,62.71
2019-03-13T02:42:06.536Z,62.92
2019-03-13T02:43:06.516Z,63.22
2019-03-13T02:44:06.495Z,63.15
2019-03-13T02:45:06.486Z,62.84
2019-03-13T02:46:06.476Z,62.71
2019-03-13T02:47:06.475Z,62.92
2019-03-13T02:48:06.456Z,62.74
2019-03-13T02:49:06.442Z,63.25
2019-03-13T02:50:06.433Z,63.35
2019-03-13T02:51:06.428Z,63.67
2019-03-13T02:52:06.425Z,63.87
2019-03-13T02:53:06.400Z,63.56
2019-03-13T02:54:06.391Z,63.25
2019-03-13T02:55:06.381Z,63.25
2019-03-13T02:56:06.370Z,63.67
2019-03-13T02:57:06.375Z,63.77
2019-03-13T02:58:06.350Z,63.87
2019-03-13T02:59:06.338Z,64.28
2019-03-13T03:00:06.337Z,64.28
2019-03-13T03:01:06.333Z,64.39
2019-03-13T03:02:06.312Z,63.87
2019-03-13T03:03:06.310Z,64.39
2019-03-13T03:04:06.286Z,63.87
2019-03-13T03:05:06.278Z,64.39
2019-03-13T03:06:06.267Z,63.56
2019-03-13T03:07:06.258Z,63.97
2019-03-13T03:08:06.264Z,63.87
2019-03-13T03:09:06.234Z,64.39
2019-03-13T03:10:06.224Z,64.49
2019-03-13T03:11:06.226Z,64.18
2019-03-13T03:12:06.204Z,64.07
2019-03-13T03:13:06.203Z,64.70
2019-03-13T03:14:06.192Z,64.90
2019-03-13T03:15:06.176Z,65.11
2019-03-13T03:16:06.163Z,64.70
2019-03-13T03:17:06.151Z,64.49
2019-03-13T03:18:06.153Z,64.80
2019-03-13T03:19:06.149Z,64.07
2019-03-13T03:20:06.122Z,64.18
2019-03-13T03:21:06.110Z,64.90
2019-03-13T03:22:06.107Z,63.97
2019-03-13T03:23:06.100Z,64.59
2019-03-13T03:24:06.077Z,64.39
2019-03-13T03:25:06.070Z,64.39
2019-03-13T03:26:06.058Z,64.80
2019-03-13T03:27:06.046Z,64.39
2019-03-13T03:28:06.050Z,64.18
2019-03-13T03:29:06.028Z,64.59
2019-03-13T03:30:06.031Z,64.07
2019-03-13T03:31:06.017Z,64.49
2019-03-13T03:32:05.998Z,63.97
2019-03-13T03:33:06.009Z,64.28
2019-03-13T03:34:05.976Z,64.11
2019-03-13T03:35:05.971Z,64.39
2019-03-13T03:36:05.974Z,64.07
2019-03-13T03:37:05.990Z,64.11
2019-03-13T03:38:05.941Z,64.28
2019-03-13T03:39:05.929Z,63.87
2019-03-13T03:40:05.918Z,63.90
2019-03-13T03:41:05.908Z,64.49
2019-03-13T03:42:05.890Z,64.42
2019-03-13T03:43:05.909Z,64.52
2019-03-13T03:44:05.875Z,64.52
2019-03-13T03:45:05.875Z,64.52
2019-03-13T03:46:05.847Z,64.31
2019-03-13T03:47:05.844Z,64.31
2019-03-13T03:48:05.842Z,63.90
2019-03-13T03:49:05.821Z,64.31
2019-03-13T03:50:05.806Z,64.52
2019-03-13T03:51:05.928Z,63.79
2019-03-13T03:52:05.788Z,63.90
2019-03-13T03:53:05.791Z,63.90
2019-03-13T03:54:05.781Z,64.31
2019-03-13T03:55:05.755Z,64.42
2019-03-13T03:56:05.744Z,63.90
2019-03-13T03:57:05.735Z,64.00
2019-03-13T03:58:05.733Z,63.18
2019-03-13T03:59:05.719Z,63.59
2019-03-13T04:00:05.705Z,63.18
2019-03-13T04:01:05.692Z,63.07
2019-03-13T04:02:05.689Z,63.07
2019-03-13T04:03:05.684Z,62.97
2019-03-13T04:04:05.662Z,63.07
2019-03-13T04:05:05.651Z,62.87
2019-03-13T04:06:05.638Z,62.87
2019-03-13T04:07:05.633Z,62.66
2019-03-13T04:08:05.632Z,61.83
2019-03-13T04:09:05.632Z,61.83
2019-03-13T04:10:05.600Z,61.63
2019-03-13T04:11:05.588Z,61.52
2019-03-13T04:12:05.582Z,61.11
2019-03-13T04:13:05.578Z,60.70
2019-03-13T04:14:05.561Z,61.01
2019-03-13T04:15:05.545Z,60.39
2019-03-13T04:16:05.553Z,59.67
2019-03-13T04:17:05.535Z,59.23
2019-03-13T04:18:05.808Z,59.36
2019-03-13T04:19:05.514Z,59.46
2019-03-13T04:20:05.491Z,59.02
2019-03-13T04:21:05.485Z,58.71
2019-03-13T04:22:05.493Z,58.74
2019-03-13T04:23:05.463Z,58.09
2019-03-13T04:24:05.456Z,58.20
2019-03-13T04:25:05.441Z,58.33
2019-03-13T04:26:05.430Z,58.22
2019-03-13T04:27:05.419Z,58.43
2019-03-13T04:28:05.411Z,58.50
2019-03-13T04:29:05.405Z,58.53
2019-03-13T04:30:05.396Z,58.40
2019-03-13T04:31:05.378Z,57.99
2019-03-13T04:32:05.367Z,57.99
2019-03-13T04:33:05.361Z,58.09
2019-03-13T04:34:05.356Z,58.40
2019-03-13T04:35:05.339Z,58.40
2019-03-13T04:36:05.342Z,59.23
2019-03-13T04:37:05.319Z,59.64
2019-03-13T04:38:05.350Z,59.84
2019-03-13T04:39:05.305Z,60.39
2019-03-13T04:40:05.283Z,60.08
2019-03-13T04:41:05.276Z,60.18
2019-03-13T04:42:05.265Z,60.28
2019-03-13T04:43:05.256Z,59.98
2019-03-13T04:44:05.251Z,60.47
2019-03-13T04:45:05.242Z,60.47
2019-03-13T04:46:05.225Z,60.18
2019-03-13T04:47:05.215Z,60.26
2019-03-13T04:48:05.211Z,59.44
2019-03-13T04:49:05.201Z,59.44
2019-03-13T04:50:05.187Z,59.77
2019-03-13T04:51:05.185Z,60.60
2019-03-13T04:52:05.159Z,59.67
2019-03-13T04:53:05.151Z,60.16
2019-03-13T04:54:05.141Z,60.26
2019-03-13T04:55:05.132Z,59.74
2019-03-13T04:56:05.124Z,59.74
2019-03-13T04:57:05.121Z,59.02
2019-03-13T04:58:05.097Z,58.50
2019-03-13T04:59:05.094Z,59.15
2019-03-13T05:00:05.078Z,58.30
2019-03-13T05:01:05.071Z,57.89
2019-03-13T05:02:05.056Z,58.30
2019-03-13T05:03:05.043Z,58.09
2019-03-13T05:04:05.049Z,58.20
2019-03-13T05:05:05.037Z,58.20
2019-03-13T05:06:05.017Z,57.99
2019-03-13T05:07:05.008Z,58.30
2019-03-13T05:08:04.992Z,58.30
2019-03-13T05:09:04.996Z,58.20
2019-03-13T05:10:04.971Z,58.40
2019-03-13T05:11:04.975Z,58.20
2019-03-13T05:12:04.951Z,58.50
2019-03-13T05:13:05.053Z,59.12
2019-03-13T05:14:04.943Z,59.44
2019-03-13T05:15:04.919Z,60.47
2019-03-13T05:16:04.913Z,60.26
2019-03-13T05:17:04.901Z,59.84
2019-03-13T05:18:04.886Z,60.77
2019-03-13T05:19:04.887Z,60.88
2019-03-13T05:20:04.870Z,61.01
2019-03-13T05:21:04.859Z,61.32
2019-03-13T05:22:04.848Z,61.52
2019-03-13T05:23:04.835Z,61.52
2019-03-13T05:24:04.833Z,61.73
2019-03-13T05:25:04.814Z,61.32
2019-03-13T05:26:04.803Z,61.01
2019-03-13T05:27:04.793Z,61.01
2019-03-13T05:28:04.790Z,61.63
2019-03-13T05:29:04.801Z,61.83
2019-03-13T05:30:04.764Z,61.83
2019-03-13T05:31:04.752Z,61.83
2019-03-13T05:32:04.739Z,61.63
2019-03-13T05:33:04.730Z,62.15
2019-03-13T05:34:04.718Z,62.15
2019-03-13T05:35:04.725Z,62.04
2019-03-13T05:36:04.698Z,61.52
2019-03-13T05:37:04.689Z,61.73
2019-03-13T05:38:04.677Z,61.73
2019-03-13T05:39:04.668Z,61.83
2019-03-13T05:40:04.670Z,61.83
2019-03-13T05:41:04.645Z,61.94
2019-03-13T05:42:04.637Z,61.83
2019-03-13T05:43:04.637Z,61.66
2019-03-13T05:44:04.615Z,61.55
2019-03-13T05:45:04.635Z,61.45
2019-03-13T05:46:04.610Z,61.45
2019-03-13T05:47:04.582Z,62.17
2019-03-13T05:48:04.573Z,61.04
2019-03-13T05:49:04.574Z,61.45
2019-03-13T05:50:04.564Z,61.14
2019-03-13T05:51:04.542Z,61.66
2019-03-13T05:52:04.536Z,61.76
2019-03-13T05:53:04.521Z,61.45
2019-03-13T05:54:04.523Z,61.04
2019-03-13T05:55:04.512Z,61.24
2019-03-13T05:56:04.501Z,61.35
2019-03-13T05:57:04.492Z,60.93
2019-03-13T05:58:04.474Z,61.04
2019-03-13T05:59:04.458Z,61.55
2019-03-13T06:00:04.460Z,61.55
2019-03-13T06:01:04.437Z,61.55
2019-03-13T06:02:04.428Z,61.45
2019-03-13T06:03:04.420Z,60.93
2019-03-13T06:04:04.421Z,60.83
2019-03-13T06:05:04.407Z,61.14
2019-03-13T06:06:04.385Z,60.83
2019-03-13T06:07:04.374Z,61.04
2019-03-13T06:08:04.364Z,61.04
2019-03-13T06:09:04.355Z,60.52
2019-03-13T06:10:04.357Z,61.76
2019-03-13T06:11:04.331Z,60.83
2019-03-13T06:12:04.322Z,61.45
2019-03-13T06:13:04.326Z,61.76
2019-03-13T06:14:04.303Z,62.07
2019-03-13T06:15:04.311Z,62.27
2019-03-13T06:16:04.286Z,62.59
2019-03-13T06:17:04.272Z,62.62
2019-03-13T06:18:04.260Z,62.82
2019-03-13T06:19:04.248Z,62.82
2019-03-13T06:20:04.250Z,63.23
2019-03-13T06:21:04.229Z,62.93
2019-03-13T06:22:04.218Z,62.82
2019-03-13T06:23:04.210Z,63.85
2019-03-13T06:24:04.196Z,63.44
2019-03-13T06:25:04.204Z,63.54
2019-03-13T06:26:04.176Z,63.44
2019-03-13T06:27:04.170Z,63.75
2019-03-13T06:28:04.193Z,63.54
2019-03-13T06:29:04.146Z,63.75
2019-03-13T06:30:04.154Z,63.65
2019-03-13T06:31:04.123Z,63.54
2019-03-13T06:32:04.114Z,63.54
2019-03-13T06:33:04.106Z,63.96
2019-03-13T06:34:04.095Z,63.96
2019-03-13T06:35:04.104Z,63.75
2019-03-13T06:36:04.078Z,63.65
2019-03-13T06:37:04.060Z,63.75
2019-03-13T06:38:04.067Z,63.47
2019-03-13T06:39:04.043Z,63.34
2019-03-13T06:40:04.031Z,63.23
2019-03-13T06:41:05.403Z,63.75
2019-03-13T06:42:04.026Z,64.06
2019-03-13T06:43:03.999Z,64.37
2019-03-13T06:44:03.988Z,65.09
2019-03-13T06:45:03.978Z,64.68
2019-03-13T06:46:03.970Z,65.92
2019-03-13T06:47:03.959Z,66.64
2019-03-13T06:48:03.961Z,67.47
2019-03-13T06:49:03.954Z,68.61
2019-03-13T06:50:03.970Z,69.88
2019-03-13T06:51:03.921Z,72.16
2019-03-13T06:52:03.907Z,73.39
2019-03-13T06:53:03.898Z,74.67
2019-03-13T06:54:03.883Z,76.01
2019-03-13T06:55:03.874Z,77.47
2019-03-13T06:56:03.867Z,77.77
2019-03-13T06:57:03.852Z,78.22
2019-03-13T06:58:03.844Z,79.47
2019-03-13T06:59:03.832Z,80.81
2019-03-13T07:00:03.823Z,81.12
2019-03-13T07:01:03.825Z,80.64
2019-03-13T07:02:03.804Z,79.91
2019-03-13T07:03:03.794Z,80.12
2019-03-13T07:04:03.784Z,81.16
2019-03-13T07:05:03.780Z,82.29
2019-03-13T07:06:03.778Z,80.81
2019-03-13T07:07:03.747Z,81.05
2019-03-13T07:08:03.737Z,80.81
2019-03-13T07:09:03.744Z,80.50
2019-03-13T07:10:03.734Z,79.26
2019-03-13T07:11:03.737Z,78.95
2019-03-13T07:12:03.696Z,80.26
2019-03-13T07:13:03.685Z,78.64
2019-03-13T07:14:03.678Z,78.02
2019-03-13T07:15:03.667Z,77.77
2019-03-13T07:16:03.665Z,77.47
2019-03-13T07:17:03.646Z,75.81
2019-03-13T07:18:03.633Z,76.12
2019-03-13T07:19:03.627Z,73.94
2019-03-13T07:20:03.621Z,74.43
2019-03-13T07:21:03.616Z,73.39
2019-03-13T07:22:03.593Z,72.57
2019-03-13T07:23:03.584Z,72.88
2019-03-13T07:24:03.570Z,72.98
2019-03-13T07:25:03.565Z,70.81
2019-03-13T07:26:03.602Z,70.26
2019-03-13T07:27:03.548Z,70.26
2019-03-13T07:28:03.529Z,70.16
2019-03-13T07:29:12.283Z,69.54
2019-03-13T07:30:04.506Z,67.54
2019-03-13T07:31:03.509Z,66.61
2019-03-13T07:32:03.491Z,66.51
2019-03-13T07:33:03.494Z,66.41
2019-03-13T07:34:03.467Z,65.17
2019-03-13T07:35:03.467Z,65.58
2019-03-13T07:36:03.459Z,64.11
2019-03-13T07:37:03.438Z,65.48
2019-03-13T07:38:03.423Z,64.55
2019-03-13T07:39:03.420Z,63.21
2019-03-13T07:40:03.404Z,62.90
2019-03-13T07:41:03.403Z,62.79
2019-03-13T07:42:03.383Z,63.07
2019-03-13T07:43:03.371Z,61.73
2019-03-13T07:44:03.365Z,62.25
2019-03-13T07:45:03.351Z,62.17
2019-03-13T07:46:03.355Z,61.83
2019-03-13T07:47:03.334Z,61.83
2019-03-13T07:48:03.339Z,61.73
2019-03-13T07:49:03.318Z,61.22
2019-03-13T07:50:03.315Z,61.11
2019-03-13T07:51:03.299Z,60.80
2019-03-13T07:52:03.279Z,61.52
2019-03-13T07:53:03.272Z,61.11
2019-03-13T07:54:03.275Z,61.32
2019-03-13T07:55:03.246Z,61.60
2019-03-13T07:56:03.251Z,61.08
2019-03-13T07:57:03.237Z,61.70
2019-03-13T07:58:03.302Z,60.77
2019-03-13T07:59:03.209Z,59.84
2019-03-13T08:00:03.209Z,60.36
2019-03-13T08:01:03.206Z,60.57
2019-03-13T08:02:03.174Z,60.23
2019-03-13T08:03:03.172Z,59.92
2019-03-13T08:04:05.197Z,60.44
2019-03-13T08:05:03.145Z,59.72
2019-03-13T08:06:03.132Z,59.61
2019-03-13T08:07:03.128Z,59.82
2019-03-13T08:08:03.110Z,58.99
2019-03-13T08:09:03.102Z,59.30
2019-03-13T08:10:03.088Z,58.37
2019-03-13T08:11:03.090Z,58.48
2019-03-13T08:12:03.078Z,57.76
2019-03-13T08:13:03.058Z,58.17
2019-03-13T08:14:03.049Z,58.69
2019-03-13T08:15:03.037Z,58.17
2019-03-13T08:16:03.025Z,57.93
2019-03-13T08:17:03.018Z,58.14
2019-03-13T08:18:03.005Z,57.62
2019-03-13T08:19:02.995Z,57.52
2019-03-13T08:20:02.984Z,57.11
2019-03-13T08:21:02.984Z,56.90
2019-03-13T08:22:02.977Z,56.16
2019-03-13T08:23:02.963Z,55.64
2019-03-13T08:24:02.961Z,56.57
2019-03-13T08:25:02.933Z,54.82
2019-03-13T08:26:02.926Z,55.43
2019-03-13T08:27:02.930Z,56.05
2019-03-13T08:28:02.912Z,55.64
2019-03-13T08:29:02.961Z,54.41
2019-03-13T08:30:02.883Z,54.51
2019-03-13T08:31:02.873Z,54.28
2019-03-13T08:32:02.889Z,54.48
2019-03-13T08:33:02.849Z,55.41
2019-03-13T08:34:02.838Z,54.28
2019-03-13T08:35:02.828Z,54.38
2019-03-13T08:36:02.819Z,54.17
2019-03-13T08:37:02.820Z,54.77
2019-03-13T08:38:02.799Z,54.07
2019-03-13T08:39:02.786Z,53.94
2019-03-13T08:40:02.777Z,53.84
2019-03-13T08:41:02.764Z,54.56
2019-03-13T08:42:02.766Z,53.45
2019-03-13T08:43:02.744Z,53.63
2019-03-13T08:44:02.734Z,54.28
2019-03-13T08:45:02.725Z,53.97
2019-03-13T08:46:02.722Z,54.15
2019-03-13T08:47:02.716Z,54.35
2019-03-13T08:48:02.691Z,54.56
2019-03-13T08:49:02.683Z,53.94
2019-03-13T08:50:02.672Z,54.05
2019-03-13T08:51:02.665Z,53.94
2019-03-13T08:52:02.671Z,53.74
2019-03-13T08:53:02.640Z,53.74
2019-03-13T08:54:02.630Z,54.22
2019-03-13T08:55:02.635Z,53.81
2019-03-13T08:56:02.613Z,53.30
2019-03-13T08:57:02.611Z,53.50
2019-03-13T08:58:02.594Z,53.71
2019-03-13T08:59:02.583Z,53.50
2019-03-13T09:00:02.584Z,53.20
2019-03-13T09:01:02.564Z,52.69
2019-03-13T09:02:02.551Z,52.99
2019-03-13T09:03:02.538Z,53.09
2019-03-13T09:04:02.531Z,53.12
2019-03-13T09:05:02.526Z,52.29
2019-03-13T09:06:02.717Z,53.63
2019-03-13T09:07:02.583Z,52.50
2019-03-13T09:08:02.483Z,52.50
2019-03-13T09:09:02.473Z,52.50
2019-03-13T09:10:02.463Z,53.14
2019-03-13T09:11:02.473Z,52.29
2019-03-13T09:12:02.458Z,52.19
2019-03-13T09:13:02.441Z,51.98
2019-03-13T09:14:02.421Z,52.09
2019-03-13T09:15:02.412Z,52.40
2019-03-13T09:16:02.401Z,52.91
2019-03-13T09:17:02.406Z,52.81
2019-03-13T09:18:02.380Z,52.09
2019-03-13T09:19:02.369Z,51.89
2019-03-13T09:20:02.366Z,52.19
2019-03-13T09:21:02.350Z,51.86
2019-03-13T09:22:02.339Z,51.55
2019-03-13T09:23:02.340Z,51.55
2019-03-13T09:24:02.322Z,51.96
2019-03-13T09:25:11.672Z,51.14
2019-03-13T09:26:03.301Z,50.96
2019-03-13T09:27:02.290Z,51.76
2019-03-13T09:28:02.312Z,51.96
2019-03-13T09:29:02.267Z,50.62
2019-03-13T09:30:02.257Z,49.80
2019-03-13T09:31:02.244Z,49.80
2019-03-13T09:32:02.241Z,50.52
2019-03-13T09:33:02.240Z,50.32
2019-03-13T09:34:02.220Z,50.83
2019-03-13T09:35:02.205Z,51.14
2019-03-13T09:36:02.193Z,50.42
2019-03-13T09:37:02.185Z,50.60
2019-03-13T09:38:02.184Z,50.19
2019-03-13T09:39:02.163Z,49.98
2019-03-13T09:40:02.161Z,50.70
2019-03-13T09:41:02.148Z,49.98
2019-03-13T09:42:02.131Z,49.98
2019-03-13T09:43:02.135Z,50.81
2019-03-13T09:44:02.113Z,50.68
2019-03-13T09:45:02.099Z,49.96
2019-03-13T09:46:02.103Z,49.14
2019-03-13T09:47:02.082Z,48.91
2019-03-13T09:48:02.082Z,49.32
2019-03-13T09:49:02.060Z,48.81
2019-03-13T09:50:02.099Z,48.50
2019-03-13T09:51:02.040Z,48.58
2019-03-13T09:52:02.024Z,48.89
2019-03-13T09:53:02.025Z,48.25
2019-03-13T09:54:02.005Z,48.66
2019-03-13T09:55:04.528Z,48.14
2019-03-13T09:56:01.987Z,48.66
2019-03-13T09:57:01.995Z,48.76
2019-03-13T09:58:01.977Z,48.43
2019-03-13T09:59:01.950Z,48.43
2019-03-13T10:00:01.945Z,48.35
2019-03-13T10:01:01.938Z,48.46
2019-03-13T10:02:01.924Z,49.27
2019-03-13T10:03:01.920Z,48.76
2019-03-13T10:04:01.904Z,48.56
2019-03-13T10:05:01.910Z,48.35
2019-03-13T10:06:01.877Z,49.09
2019-03-13T10:07:01.872Z,48.86
2019-03-13T10:08:01.865Z,48.86
2019-03-13T10:09:01.846Z,49.30
2019-03-13T10:10:01.835Z,49.58
2019-03-13T10:11:01.825Z,48.86
2019-03-13T10:12:01.815Z,48.56
2019-03-13T10:13:01.838Z,48.46
2019-03-13T10:14:01.791Z,48.04
2019-03-13T10:15:01.785Z,48.86
2019-03-13T10:16:01.771Z,48.56
2019-03-13T10:17:10.615Z,48.22
2019-03-13T10:18:02.755Z,48.74
2019-03-13T10:19:01.738Z,47.41
2019-03-13T10:20:01.738Z,47.71
2019-03-13T10:21:01.716Z,48.02
2019-03-13T10:22:01.708Z,48.02
2019-03-13T10:23:01.716Z,48.54
2019-03-13T10:24:01.686Z,47.69
2019-03-13T10:25:01.673Z,47.79
2019-03-13T10:26:01.665Z,47.67
2019-03-13T10:27:01.652Z,47.36
2019-03-13T10:28:01.653Z,48.00
2019-03-13T10:29:01.633Z,47.59
2019-03-13T10:30:01.623Z,48.72
2019-03-13T10:31:01.613Z,48.94
2019-03-13T10:32:01.604Z,49.66
2019-03-13T10:33:01.602Z,48.94
2019-03-13T10:34:01.578Z,50.20
2019-03-13T10:35:01.569Z,51.02
2019-03-13T10:36:01.557Z,51.64
2019-03-13T10:37:01.560Z,52.07
2019-03-13T10:38:13.106Z,51.84
2019-03-13T10:39:02.528Z,49.51
2019-03-13T10:40:01.520Z,50.61
2019-03-13T10:41:01.505Z,50.30
2019-03-13T10:42:01.495Z,50.18
2019-03-13T10:43:01.495Z,49.23
2019-03-13T10:44:01.472Z,49.13
2019-03-13T10:45:01.465Z,49.02
2019-03-13T10:46:01.453Z,48.82
2019-03-13T10:47:01.442Z,48.92
2019-03-13T10:48:01.443Z,48.92
2019-03-13T10:49:01.423Z,48.61
2019-03-13T10:50:01.412Z,48.61
2019-03-13T10:51:01.400Z,48.59
2019-03-13T10:52:01.389Z,49.00
2019-03-13T10:53:01.405Z,49.18
2019-03-13T10:54:01.368Z,49.21
2019-03-13T10:55:01.356Z,49.21
2019-03-13T10:56:01.347Z,48.49
2019-03-13T10:57:01.334Z,49.21
2019-03-13T10:58:01.330Z,49.13
2019-03-13T10:59:01.329Z,48.18
2019-03-13T11:00:01.303Z,49.10
2019-03-13T11:01:01.295Z,47.97
2019-03-13T11:02:01.285Z,46.34
2019-03-13T11:03:01.277Z,46.31
2019-03-13T11:04:01.273Z,44.14
2019-03-13T11:05:01.257Z,44.76
2019-03-13T11:06:01.240Z,44.35
2019-03-13T11:07:01.232Z,43.91
2019-03-13T11:08:01.220Z,43.53
2019-03-13T11:09:01.223Z,43.84
2019-03-13T11:10:01.198Z,43.94
2019-03-13T11:11:01.188Z,43.63
2019-03-13T11:12:01.183Z,43.55
2019-03-13T11:13:01.173Z,43.55
2019-03-13T11:14:14.462Z,44.26
2019-03-13T11:15:02.162Z,43.96
2019-03-13T11:16:01.136Z,44.90
2019-03-13T11:17:01.125Z,44.90
2019-03-13T11:18:01.134Z,45.95
2019-03-13T11:19:01.113Z,45.54
2019-03-13T11:20:01.107Z,45.54
2019-03-13T11:21:01.081Z,44.41
2019-03-13T11:22:01.069Z,44.51
2019-03-13T11:23:01.061Z,44.74
2019-03-13T11:24:01.188Z,44.92
2019-03-13T11:25:01.043Z,44.94
2019-03-13T11:26:01.071Z,44.94
2019-03-13T11:27:01.020Z,45.04
2019-03-13T11:28:01.007Z,44.43
2019-03-13T11:29:01.008Z,44.33
2019-03-13T11:30:00.988Z,44.45
2019-03-13T11:31:00.994Z,44.33
2019-03-13T11:32:00.967Z,44.56
2019-03-13T11:33:00.954Z,44.96
2019-03-13T11:34:00.958Z,45.07
2019-03-13T11:35:00.935Z,44.65
2019-03-13T11:36:00.926Z,44.04
2019-03-13T11:37:00.949Z,44.14
2019-03-13T11:38:00.912Z,43.73
2019-03-13T11:39:00.903Z,44.35
2019-03-13T11:40:00.880Z,44.04
2019-03-13T11:41:00.875Z,44.56
2019-03-13T11:42:00.861Z,44.24
2019-03-13T11:43:00.847Z,44.24
2019-03-13T11:44:00.850Z,44.35
2019-03-13T11:45:00.828Z,44.56
2019-03-13T11:46:00.819Z,44.35
2019-03-13T11:47:00.811Z,43.52
2019-03-13T11:48:00.797Z,44.14
2019-03-13T11:49:00.812Z,43.84
2019-03-13T11:50:00.777Z,43.94
2019-03-13T11:51:00.767Z,44.14
2019-03-13T11:52:00.763Z,44.04
2019-03-13T11:53:00.744Z,43.63
2019-03-13T11:54:00.732Z,44.33
2019-03-13T11:55:00.732Z,44.12
2019-03-13T11:56:00.714Z,44.20
2019-03-13T11:57:00.700Z,44.23
2019-03-13T11:58:00.691Z,43.51
2019-03-13T11:59:00.681Z,43.79
2019-03-13T12:00:00.687Z,44.18
2019-03-13T12:01:00.662Z,43.85
2019-03-13T12:02:00.652Z,43.26
2019-03-13T12:03:00.637Z,43.88
2019-03-13T12:04:00.628Z,42.85
2019-03-13T12:05:00.628Z,42.97
2019-03-13T12:06:00.609Z,43.88
2019-03-13T12:07:00.597Z,42.83
2019-03-13T12:08:00.588Z,42.83
2019-03-13T12:09:00.579Z,42.61
2019-03-13T12:10:00.584Z,42.10
2019-03-13T12:11:00.556Z,42.28
2019-03-13T12:12:00.543Z,41.13
2019-03-13T12:13:00.538Z,40.40
2019-03-13T12:14:00.522Z,40.58
2019-03-13T12:15:00.524Z,39.53
2019-03-13T12:16:00.506Z,38.87
2019-03-13T12:17:00.491Z,37.70
2019-03-13T12:18:00.479Z,38.04
2019-03-13T12:19:00.470Z,38.69
2019-03-13T12:20:00.469Z,39.73
2019-03-13T12:21:00.514Z,39.62
2019-03-13T12:22:00.453Z,39.73
2019-03-13T12:23:00.445Z,40.03
2019-03-13T12:24:00.419Z,38.79
2019-03-13T12:25:00.420Z,38.23
2019-03-13T12:26:03.084Z,38.04
2019-03-13T12:27:00.388Z,33.15
2019-03-13T12:28:00.375Z,29.96
2019-03-13T12:29:00.362Z,27.22
2019-03-13T12:30:00.493Z,24.65
2019-03-13T12:31:00.343Z,24.64
2019-03-13T12:32:00.335Z,24.29
2019-03-13T12:33:00.319Z,23.76
2019-03-13T12:34:00.314Z,26.92
2019-03-13T12:35:00.414Z,29.35
2019-03-13T12:36:00.288Z,31.95
2019-03-13T12:37:00.289Z,33.50
2019-03-13T12:38:00.267Z,34.04
2019-03-13T12:39:00.255Z,34.78
2019-03-13T12:40:00.414Z,35.03
2019-03-13T12:41:00.236Z,35.78
2019-03-13T12:42:00.224Z,37.14
2019-03-13T12:43:00.214Z,37.98
2019-03-13T12:44:00.202Z,38.91
2019-03-13T12:45:00.445Z,38.81
2019-03-13T12:46:00.185Z,36.99
2019-03-13T12:47:00.171Z,37.10
2019-03-13T12:48:00.163Z,37.74
2019-03-13T12:49:00.154Z,38.98
2019-03-13T12:50:00.314Z,38.57
2019-03-13T12:51:00.128Z,37.40
2019-03-13T12:52:00.134Z,37.26